createdAt,value
2016-03-08T00:00:30.794Z,95.5
2016-03-08T00:01:30.750Z,95.59
2016-03-08T00:02:30.722Z,95.69
2016-03-08T00:03:30.692Z,95.59
2016-03-08T00:04:30.665Z,95.5
2016-03-08T00:05:30.636Z,94.84
2016-03-08T00:06:30.608Z,94.65
2016-03-08T00:07:30.564Z,94.74
2016-03-08T00:08:30.535Z,94.93
2016-03-08T00:09:30.506Z,94.74
2016-03-08T00:10:30.477Z,94.93
2016-03-08T00:11:30.449Z,94.74
2016-03-08T00:12:30.421Z,94.74
2016-03-08T00:13:30.392Z,94.65
2016-03-08T00:14:30.347Z,94.65
2016-03-08T00:15:30.319Z,94.65
2016-03-08T00:16:30.290Z,94.84
2016-03-08T00:17:30.263Z,94.65
2016-03-08T00:18:30.233Z,94.74
2016-03-08T00:19:30.189Z,94.93
2016-03-08T00:20:30.160Z,94.74
2016-03-08T00:21:30.132Z,94.65
2016-03-08T00:22:30.104Z,94.65
2016-03-08T00:23:30.076Z,94.84
2016-03-08T00:24:30.031Z,95.4
2016-03-08T00:25:30.001Z,95.21
2016-03-08T00:26:29.974Z,95.59
2016-03-08T00:27:29.961Z,95.21
2016-03-08T00:28:29.916Z,95.5
2016-03-08T00:29:29.888Z,95.5
2016-03-08T00:30:29.844Z,95.31
2016-03-08T00:31:29.815Z,95.4
2016-03-08T00:32:29.787Z,95.59
2016-03-08T00:33:29.758Z,95.31
2016-03-08T00:34:29.730Z,95.31
2016-03-08T00:35:29.686Z,95.5
2016-03-08T00:36:29.656Z,95.4
2016-03-08T00:37:29.628Z,95.4
2016-03-08T00:38:29.600Z,95.5
2016-03-08T00:39:29.572Z,94.93
2016-03-08T00:40:29.542Z,95.03
2016-03-08T00:41:29.514Z,94.93
2016-03-08T00:42:29.469Z,95.4
2016-03-08T00:43:29.457Z,95.4
2016-03-08T00:44:29.413Z,95.59
2016-03-08T00:45:29.384Z,95.59
2016-03-08T00:46:29.355Z,95.31
2016-03-08T00:47:29.326Z,95.4
2016-03-08T00:48:29.283Z,95.03
2016-03-08T00:49:29.270Z,95.21
2016-03-08T00:50:29.226Z,95.03
2016-03-08T00:51:29.197Z,95.59
2016-03-08T00:52:29.168Z,95.5
2016-03-08T00:53:29.124Z,94.93
2016-03-08T00:54:29.096Z,95.12
2016-03-08T00:55:29.067Z,95.5
2016-03-08T00:56:29.039Z,95.5
2016-03-08T00:57:29.010Z,95.4
2016-03-08T00:58:28.965Z,95.5
2016-03-08T00:59:28.938Z,95.4
2016-03-08T01:00:28.909Z,95.12
2016-03-08T01:01:28.881Z,95.03
2016-03-08T01:02:28.851Z,95.21
2016-03-08T01:03:28.823Z,95.12
2016-03-08T01:04:28.779Z,95.12
2016-03-08T01:05:28.750Z,95.31
2016-03-08T01:06:28.722Z,95.12
2016-03-08T01:07:28.694Z,95.21
2016-03-08T01:08:28.664Z,95.31
2016-03-08T01:09:28.636Z,95.31
2016-03-08T01:10:28.585Z,95.4
2016-03-08T01:11:28.544Z,95.21
2016-03-08T01:12:28.504Z,94.65
2016-03-08T01:13:28.462Z,94.93
2016-03-08T01:14:28.421Z,94.74
2016-03-08T01:15:28.369Z,95.21
2016-03-08T01:16:28.337Z,95.03
2016-03-08T01:17:28.305Z,94.93
2016-03-08T01:18:28.272Z,94.74
2016-03-08T01:19:28.238Z,94.56
2016-03-08T01:20:28.207Z,95.03
2016-03-08T01:21:28.193Z,94.84
2016-03-08T01:22:28.132Z,94.46
2016-03-08T01:23:28.102Z,94.56
2016-03-08T01:24:28.070Z,94.37
2016-03-08T01:25:28.042Z,94.18
2016-03-08T01:26:28.012Z,94.46
2016-03-08T01:27:27.984Z,94.08
2016-03-08T01:28:27.953Z,94.18
2016-03-08T01:29:27.909Z,94.37
2016-03-08T01:30:27.879Z,94.37
2016-03-08T01:31:27.851Z,94.27
2016-03-08T01:32:27.822Z,94.27
2016-03-08T01:33:27.793Z,94.18
2016-03-08T01:34:27.749Z,94.56
2016-03-08T01:35:27.719Z,93.8
2016-03-08T01:36:27.690Z,93.99
2016-03-08T01:37:27.663Z,93.99
2016-03-08T01:38:27.634Z,93.89
2016-03-08T01:39:27.604Z,93.99
2016-03-08T01:40:27.562Z,93.7
2016-03-08T01:41:27.532Z,93.42
2016-03-08T01:42:27.504Z,93.7
2016-03-08T01:43:27.475Z,93.7
2016-03-08T01:44:27.447Z,93.61
2016-03-08T01:45:27.418Z,93.8
2016-03-08T01:46:27.374Z,93.7
2016-03-08T01:47:27.345Z,93.7
2016-03-08T01:48:27.317Z,94.08
2016-03-08T01:49:27.288Z,93.42
2016-03-08T01:50:27.260Z,93.99
2016-03-08T01:51:27.216Z,93.99
2016-03-08T01:52:27.202Z,93.8
2016-03-08T01:53:27.158Z,94.27
2016-03-08T01:54:27.130Z,94.46
2016-03-08T01:55:27.101Z,94.18
2016-03-08T01:56:27.073Z,94.18
2016-03-08T01:57:27.044Z,94.08
2016-03-08T01:58:26.999Z,94.08
2016-03-08T01:59:26.972Z,94.27
2016-03-08T02:00:26.943Z,94.18
2016-03-08T02:01:26.914Z,94.18
2016-03-08T02:02:26.885Z,94.37
2016-03-08T02:03:26.841Z,94.56
2016-03-08T02:04:26.829Z,94.27
2016-03-08T02:05:26.785Z,94.37
2016-03-08T02:06:26.757Z,94.74
2016-03-08T02:07:26.727Z,94.18
2016-03-08T02:08:26.682Z,94.08
2016-03-08T02:09:26.655Z,93.99
2016-03-08T02:10:26.626Z,94.27
2016-03-08T02:11:26.597Z,93.99
2016-03-08T02:12:26.569Z,94.18
2016-03-08T02:13:26.540Z,94.27
2016-03-08T02:14:26.496Z,94.27
2016-03-08T02:15:26.468Z,94.08
2016-03-08T02:16:26.439Z,94.56
2016-03-08T02:17:26.411Z,94.08
2016-03-08T02:18:26.367Z,94.37
2016-03-08T02:19:26.337Z,94.46
2016-03-08T02:20:26.309Z,94.46
2016-03-08T02:21:26.280Z,94.65
2016-03-08T02:22:26.252Z,94.37
2016-03-08T02:23:26.223Z,94.46
2016-03-08T02:24:26.180Z,94.56
2016-03-08T02:25:26.150Z,94.56
2016-03-08T02:26:26.122Z,94.18
2016-03-08T02:27:26.094Z,94.18
2016-03-08T02:28:26.065Z,94.56
2016-03-08T02:29:26.036Z,94.46
2016-03-08T02:30:25.991Z,94.56
2016-03-08T02:31:25.964Z,94.08
2016-03-08T02:32:25.935Z,94.56
2016-03-08T02:33:25.907Z,94.46
2016-03-08T02:34:25.910Z,94.27
2016-03-08T02:35:25.880Z,94.37
2016-03-08T02:36:25.805Z,94.27
2016-03-08T02:37:25.777Z,94.56
2016-03-08T02:38:25.733Z,94.46
2016-03-08T02:39:25.704Z,94.27
2016-03-08T02:40:25.675Z,94.42
2016-03-08T02:41:25.647Z,94.04
2016-03-08T02:42:25.618Z,93.99
2016-03-08T02:43:25.590Z,94.18
2016-03-08T02:44:25.546Z,94.13
2016-03-08T02:45:25.517Z,94.42
2016-03-08T02:46:25.488Z,94.23
2016-03-08T02:47:25.460Z,94.37
2016-03-08T02:48:25.431Z,94.23
2016-03-08T02:49:25.387Z,94.04
2016-03-08T02:50:25.359Z,94.13
2016-03-08T02:51:25.330Z,94.23
2016-03-08T02:52:25.301Z,94.13
2016-03-08T02:53:25.273Z,94.04
2016-03-08T02:54:25.228Z,94.51
2016-03-08T02:55:25.200Z,94.51
2016-03-08T02:56:25.171Z,94.13
2016-03-08T02:57:25.144Z,93.94
2016-03-08T02:58:25.114Z,94.13
2016-03-08T02:59:25.069Z,94.04
2016-03-08T03:00:25.041Z,94.42
2016-03-08T03:01:25.013Z,94.04
2016-03-08T03:02:24.985Z,94.04
2016-03-08T03:03:24.956Z,94.42
2016-03-08T03:04:24.912Z,94.04
2016-03-08T03:05:24.883Z,94.04
2016-03-08T03:06:24.855Z,94.04
2016-03-08T03:07:24.827Z,94.23
2016-03-08T03:08:24.798Z,94.51
2016-03-08T03:09:24.753Z,94.23
2016-03-08T03:10:24.725Z,94.42
2016-03-08T03:11:24.696Z,94.6
2016-03-08T03:12:24.668Z,94.23
2016-03-08T03:13:24.640Z,94.51
2016-03-08T03:14:24.595Z,94.32
2016-03-08T03:15:24.566Z,94.51
2016-03-08T03:16:24.538Z,94.04
2016-03-08T03:17:24.509Z,94.04
2016-03-08T03:18:24.481Z,94.04
2016-03-08T03:19:24.436Z,94.23
2016-03-08T03:20:24.408Z,94.04
2016-03-08T03:21:24.379Z,94.13
2016-03-08T03:22:24.351Z,94.13
2016-03-08T03:23:24.323Z,93.94
2016-03-08T03:24:24.294Z,94.23
2016-03-08T03:25:24.249Z,94.04
2016-03-08T03:26:24.222Z,94.04
2016-03-08T03:27:24.192Z,94.13
2016-03-08T03:28:24.164Z,94.23
2016-03-08T03:29:24.119Z,94.04
2016-03-08T03:30:24.091Z,94.42
2016-03-08T03:31:24.063Z,94.42
2016-03-08T03:32:24.034Z,94.51
2016-03-08T03:33:24.006Z,94.13
2016-03-08T03:34:23.961Z,93.94
2016-03-08T03:35:23.932Z,94.13
2016-03-08T03:36:23.905Z,94.23
2016-03-08T03:37:23.876Z,94.04
2016-03-08T03:38:23.846Z,94.23
2016-03-08T03:39:23.802Z,94.23
2016-03-08T03:40:23.774Z,94.04
2016-03-08T03:41:23.745Z,93.94
2016-03-08T03:42:23.718Z,93.85
2016-03-08T03:43:23.673Z,93.94
2016-03-08T03:44:23.645Z,94.13
2016-03-08T03:45:23.615Z,93.85
2016-03-08T03:46:23.587Z,93.94
2016-03-08T03:47:23.559Z,93.47
2016-03-08T03:48:23.514Z,93.37
2016-03-08T03:49:23.486Z,94.04
2016-03-08T03:50:23.457Z,93.85
2016-03-08T03:51:23.428Z,93.28
2016-03-08T03:52:23.401Z,93.66
2016-03-08T03:53:23.372Z,93.66
2016-03-08T03:54:23.328Z,93.56
2016-03-08T03:55:23.300Z,93.47
2016-03-08T03:56:23.270Z,93.94
2016-03-08T03:57:23.242Z,94.51
2016-03-08T03:58:23.197Z,94.32
2016-03-08T03:59:23.169Z,94.32
2016-03-08T04:00:23.141Z,94.42
2016-03-08T04:01:23.111Z,94.13
2016-03-08T04:02:23.084Z,94.23
2016-03-08T04:03:23.039Z,94.23
2016-03-08T04:04:23.010Z,94.13
2016-03-08T04:05:22.982Z,94.42
2016-03-08T04:06:22.948Z,94.23
2016-03-08T04:07:22.919Z,94.51
2016-03-08T04:08:22.890Z,94.42
2016-03-08T04:09:22.846Z,93.94
2016-03-08T04:10:22.818Z,94.32
2016-03-08T04:11:22.804Z,94.51
2016-03-08T04:12:22.761Z,94.23
2016-03-08T04:13:22.732Z,94.42
2016-03-08T04:14:22.703Z,94.23
2016-03-08T04:15:22.660Z,93.75
2016-03-08T04:16:22.631Z,94.32
2016-03-08T04:17:22.603Z,94.23
2016-03-08T04:18:22.558Z,94.13
2016-03-08T04:19:22.530Z,94.13
2016-03-08T04:20:22.500Z,94.42
2016-03-08T04:21:22.472Z,94.04
2016-03-08T04:22:22.443Z,94.51
2016-03-08T04:23:22.399Z,94.42
2016-03-08T04:24:22.371Z,94.32
2016-03-08T04:25:22.342Z,94.51
2016-03-08T04:26:22.314Z,93.85
2016-03-08T04:27:22.347Z,93.94
2016-03-08T04:28:22.241Z,93.66
2016-03-08T04:29:22.213Z,93.85
2016-03-08T04:30:22.184Z,93.75
2016-03-08T04:31:22.155Z,93.56
2016-03-08T04:32:22.126Z,93.47
2016-03-08T04:33:22.083Z,93.56
2016-03-08T04:34:22.054Z,93.85
2016-03-08T04:35:22.026Z,93.47
2016-03-08T04:36:21.997Z,93.37
2016-03-08T04:37:21.953Z,93.66
2016-03-08T04:38:21.924Z,93.56
2016-03-08T04:39:21.896Z,93.85
2016-03-08T04:40:21.867Z,93.85
2016-03-08T04:41:21.839Z,94.04
2016-03-08T04:42:21.794Z,93.85
2016-03-08T04:43:21.766Z,93.85
2016-03-08T04:44:21.737Z,94.42
2016-03-08T04:45:21.693Z,93.85
2016-03-08T04:46:21.681Z,93.94
2016-03-08T04:47:21.636Z,94.23
2016-03-08T04:48:21.608Z,94.32
2016-03-08T04:49:21.579Z,94.32
2016-03-08T04:50:21.551Z,94.23
2016-03-08T04:51:21.522Z,94.04
2016-03-08T04:52:21.477Z,94.04
2016-03-08T04:53:21.449Z,94.13
2016-03-08T04:54:21.420Z,94.13
2016-03-08T04:55:21.376Z,94.13
2016-03-08T04:56:21.348Z,94.13
2016-03-08T04:57:21.319Z,94.13
2016-03-08T04:58:21.290Z,94.23
2016-03-08T04:59:21.246Z,94.13
2016-03-08T05:00:21.218Z,94.23
2016-03-08T05:01:21.189Z,94.32
2016-03-08T05:02:21.160Z,94.32
2016-03-08T05:03:21.163Z,94.23
2016-03-08T05:04:21.088Z,94.42
2016-03-08T05:05:21.059Z,94.42
2016-03-08T05:06:21.032Z,94.51
2016-03-08T05:07:20.987Z,94.42
2016-03-08T05:08:20.958Z,94.32
2016-03-08T05:09:20.929Z,94.6
2016-03-08T05:10:20.901Z,94.42
2016-03-08T05:11:20.857Z,94.42
2016-03-08T05:12:20.828Z,94.42
2016-03-08T05:13:20.800Z,94.6
2016-03-08T05:14:20.771Z,94.51
2016-03-08T05:15:20.726Z,94.42
2016-03-08T05:16:20.699Z,94.42
2016-03-08T05:17:20.670Z,94.42
2016-03-08T05:18:20.642Z,94.6
2016-03-08T05:19:20.612Z,94.79
2016-03-08T05:20:20.569Z,94.7
2016-03-08T05:21:20.539Z,94.98
2016-03-08T05:22:20.511Z,94.89
2016-03-08T05:23:20.482Z,94.7
2016-03-08T05:24:20.439Z,94.89
2016-03-08T05:25:20.410Z,94.79
2016-03-08T05:26:20.381Z,94.7
2016-03-08T05:27:20.353Z,94.79
2016-03-08T05:28:20.308Z,95.07
2016-03-08T05:29:20.280Z,94.89
2016-03-08T05:30:20.251Z,94.89
2016-03-08T05:31:20.224Z,94.89
2016-03-08T05:32:20.179Z,94.7
2016-03-08T05:33:20.149Z,94.89
2016-03-08T05:34:20.115Z,95.07
2016-03-08T05:35:20.083Z,94.89
2016-03-08T05:36:20.039Z,94.98
2016-03-08T05:37:20.070Z,94.98
2016-03-08T05:38:20.938Z,94.7
2016-03-08T05:39:19.971Z,94.7
2016-03-08T05:40:19.911Z,94.98
2016-03-08T05:41:19.914Z,94.79
2016-03-08T05:42:19.853Z,94.7
2016-03-08T05:43:19.826Z,94.7
2016-03-08T05:44:19.781Z,94.7
2016-03-08T05:45:19.753Z,94.7
2016-03-08T05:46:19.725Z,94.98
2016-03-08T05:47:19.695Z,94.98
2016-03-08T05:48:19.667Z,94.04
2016-03-08T05:49:19.708Z,94.04
2016-03-08T05:50:19.586Z,94.51
2016-03-08T05:51:19.557Z,94.42
2016-03-08T05:52:19.529Z,94.51
2016-03-08T05:53:19.500Z,94.42
2016-03-08T05:54:19.471Z,94.6
2016-03-08T05:55:19.427Z,94.79
2016-03-08T05:56:19.399Z,94.7
2016-03-08T05:57:19.370Z,94.51
2016-03-08T05:58:19.341Z,94.7
2016-03-08T05:59:19.298Z,94.79
2016-03-08T06:00:19.268Z,94.98
2016-03-08T06:01:19.240Z,94.98
2016-03-08T06:02:19.211Z,94.98
2016-03-08T06:03:19.184Z,94.79
2016-03-08T06:04:19.139Z,94.7
2016-03-08T06:05:19.110Z,94.7
2016-03-08T06:06:19.070Z,94.79
2016-03-08T06:07:19.043Z,94.89
2016-03-08T06:08:19.014Z,94.51
2016-03-08T06:09:18.969Z,94.7
2016-03-08T06:10:18.941Z,94.6
2016-03-08T06:11:18.928Z,94.7
2016-03-08T06:12:18.884Z,94.7
2016-03-08T06:13:18.855Z,94.13
2016-03-08T06:14:18.811Z,94.89
2016-03-08T06:15:18.783Z,94.98
2016-03-08T06:16:18.754Z,94.42
2016-03-08T06:17:18.726Z,94.42
2016-03-08T06:18:18.682Z,94.42
2016-03-08T06:19:18.653Z,94.32
2016-03-08T06:20:18.624Z,94.51
2016-03-08T06:21:18.596Z,93.94
2016-03-08T06:22:18.568Z,94.13
2016-03-08T06:23:18.538Z,94.42
2016-03-08T06:24:18.494Z,94.32
2016-03-08T06:25:18.466Z,94.32
2016-03-08T06:26:18.438Z,93.94
2016-03-08T06:27:18.424Z,93.94
2016-03-08T06:28:18.365Z,93.75
2016-03-08T06:29:18.336Z,93.94
2016-03-08T06:30:18.307Z,93.75
2016-03-08T06:31:18.278Z,93.75
2016-03-08T06:32:18.251Z,93.85
2016-03-08T06:33:18.206Z,93.94
2016-03-08T06:34:18.178Z,93.85
2016-03-08T06:35:18.148Z,93.85
2016-03-08T06:36:18.120Z,93.75
2016-03-08T06:37:18.092Z,93.94
2016-03-08T06:38:18.047Z,94.04
2016-03-08T06:39:18.020Z,94.04
2016-03-08T06:40:17.991Z,93.56
2016-03-08T06:41:17.961Z,93.66
2016-03-08T06:42:17.933Z,93.37
2016-03-08T06:43:17.889Z,93.56
2016-03-08T06:44:17.861Z,93.75
2016-03-08T06:45:17.832Z,93.56
2016-03-08T06:46:17.803Z,93.75
2016-03-08T06:47:17.775Z,93.75
2016-03-08T06:48:17.730Z,93.75
2016-03-08T06:49:17.703Z,93.8
2016-03-08T06:50:17.674Z,93.7
2016-03-08T06:51:17.646Z,93.42
2016-03-08T06:52:17.616Z,93.51
2016-03-08T06:53:17.619Z,92.94
2016-03-08T06:54:17.544Z,93.32
2016-03-08T06:55:17.515Z,93.13
2016-03-08T06:56:17.487Z,92.76
2016-03-08T06:57:17.458Z,92.76
2016-03-08T06:58:17.430Z,93.04
2016-03-08T06:59:17.401Z,93.04
2016-03-08T07:00:17.357Z,92.94
2016-03-08T07:01:17.329Z,92.94
2016-03-08T07:02:17.300Z,92.85
2016-03-08T07:03:17.270Z,93.13
2016-03-08T07:04:17.243Z,93.23
2016-03-08T07:05:17.214Z,93.32
2016-03-08T07:06:17.169Z,93.32
2016-03-08T07:07:17.141Z,93.04
2016-03-08T07:08:17.112Z,93.13
2016-03-08T07:09:17.100Z,92.94
2016-03-08T07:10:17.056Z,92.76
2016-03-08T07:11:17.028Z,92.38
2016-03-08T07:12:17.045Z,92.19
2016-03-08T07:13:16.954Z,92.85
2016-03-08T07:14:16.925Z,92.57
2016-03-08T07:15:16.913Z,92.1
2016-03-08T07:16:16.869Z,92.1
2016-03-08T07:17:16.840Z,92.19
2016-03-08T07:18:16.811Z,92.19
2016-03-08T07:19:16.783Z,92.38
2016-03-08T07:20:16.738Z,92.38
2016-03-08T07:21:16.727Z,92.38
2016-03-08T07:22:16.682Z,92.47
2016-03-08T07:23:16.653Z,92.57
2016-03-08T07:24:16.624Z,92.47
2016-03-08T07:25:16.596Z,92.47
2016-03-08T07:26:16.568Z,92.29
2016-03-08T07:27:16.554Z,92.1
2016-03-08T07:28:16.495Z,92.29
2016-03-08T07:29:16.466Z,92.29
2016-03-08T07:30:16.437Z,92.19
2016-03-08T07:31:16.409Z,92.1
2016-03-08T07:32:16.381Z,92.1
2016-03-08T07:33:16.352Z,92.47
2016-03-08T07:34:16.323Z,92.29
2016-03-08T07:35:16.279Z,91.62
2016-03-08T07:36:16.267Z,91.72
2016-03-08T07:37:16.222Z,91.53
2016-03-08T07:38:16.192Z,91.72
2016-03-08T07:39:16.164Z,91.62
2016-03-08T07:40:16.136Z,91.67
2016-03-08T07:41:16.123Z,91.76
2016-03-08T07:42:16.079Z,91.76
2016-03-08T07:43:16.051Z,91.76
2016-03-08T07:44:16.022Z,91.38
2016-03-08T07:45:15.993Z,91.57
2016-03-08T07:46:15.965Z,91.67
2016-03-08T07:47:15.921Z,91.57
2016-03-08T07:48:15.892Z,91.38
2016-03-08T07:49:15.863Z,91.67
2016-03-08T07:50:15.835Z,91.76
2016-03-08T07:51:15.807Z,91.29
2016-03-08T07:52:15.777Z,91.1
2016-03-08T07:53:15.750Z,91.29
2016-03-08T07:54:15.721Z,91.38
2016-03-08T07:55:15.693Z,91.29
2016-03-08T07:56:15.663Z,91.14
2016-03-08T07:57:15.635Z,91.33
2016-03-08T07:58:15.607Z,91.14
2016-03-08T07:59:15.576Z,90.39
2016-03-08T08:00:15.547Z,90.77
2016-03-08T08:01:15.519Z,90.01
2016-03-08T08:02:15.490Z,90.48
2016-03-08T08:03:15.462Z,90.48
2016-03-08T08:04:15.433Z,90.2
2016-03-08T08:05:15.404Z,89.91
2016-03-08T08:06:15.376Z,89.82
2016-03-08T08:07:15.348Z,89.91
2016-03-08T08:08:15.319Z,90.01
2016-03-08T08:09:15.275Z,89.63
2016-03-08T08:10:15.262Z,89.53
2016-03-08T08:11:15.234Z,89.44
2016-03-08T08:12:15.204Z,89.44
2016-03-08T08:13:15.160Z,89.91
2016-03-08T08:14:15.132Z,89.06
2016-03-08T08:15:15.119Z,89.25
2016-03-08T08:16:15.075Z,89.15
2016-03-08T08:17:15.062Z,89.63
2016-03-08T08:18:15.017Z,89.44
2016-03-08T08:19:15.005Z,88.96
2016-03-08T08:20:14.975Z,89.25
2016-03-08T08:21:14.933Z,89.15
2016-03-08T08:22:14.919Z,88.78
2016-03-08T08:23:14.874Z,88.87
2016-03-08T08:24:14.846Z,88.96
2016-03-08T08:25:14.818Z,89.25
2016-03-08T08:26:14.789Z,88.87
2016-03-08T08:27:14.777Z,89.15
2016-03-08T08:28:14.732Z,89.15
2016-03-08T08:29:14.719Z,89.15
2016-03-08T08:30:14.675Z,89.15
2016-03-08T08:31:14.646Z,89.25
2016-03-08T08:32:14.618Z,89.15
2016-03-08T08:33:14.590Z,88.96
2016-03-08T08:34:14.560Z,88.87
2016-03-08T08:35:14.532Z,88.96
2016-03-08T08:36:14.504Z,88.4
2016-03-08T08:37:14.475Z,88.59
2016-03-08T08:38:14.446Z,88.78
2016-03-08T08:39:14.418Z,88.68
2016-03-08T08:40:14.390Z,88.78
2016-03-08T08:41:14.362Z,88.49
2016-03-08T08:42:14.332Z,89.15
2016-03-08T08:43:14.304Z,88.49
2016-03-08T08:44:14.275Z,88.49
2016-03-08T08:45:14.247Z,88.21
2016-03-08T08:46:14.217Z,88.21
2016-03-08T08:47:14.189Z,88.11
2016-03-08T08:48:14.161Z,88.4
2016-03-08T08:49:14.132Z,88.3
2016-03-08T08:50:14.103Z,87.92
2016-03-08T08:51:14.075Z,88.49
2016-03-08T08:52:14.047Z,88.4
2016-03-08T08:53:14.018Z,88.4
2016-03-08T08:54:13.989Z,87.92
2016-03-08T08:55:13.961Z,87.83
2016-03-08T08:56:13.933Z,87.77
2016-03-08T08:57:13.904Z,87.97
2016-03-08T08:58:13.875Z,88.06
2016-03-08T08:59:13.847Z,87.97
2016-03-08T09:00:13.818Z,88.06
2016-03-08T09:01:13.790Z,87.97
2016-03-08T09:02:13.761Z,87.97
2016-03-08T09:03:13.748Z,88.06
2016-03-08T09:04:13.704Z,87.12
2016-03-08T09:05:13.675Z,87.3
2016-03-08T09:06:13.647Z,87.3
2016-03-08T09:07:13.618Z,87.4
2016-03-08T09:08:13.590Z,87.49
2016-03-08T09:09:13.562Z,87.3
2016-03-08T09:10:13.532Z,87.02
2016-03-08T09:11:13.504Z,86.74
2016-03-08T09:12:13.476Z,86.55
2016-03-08T09:13:13.447Z,86.78
2016-03-08T09:14:13.425Z,86.68
2016-03-08T09:15:13.397Z,85.83
2016-03-08T09:16:13.384Z,86.3
2016-03-08T09:17:13.339Z,85.83
2016-03-08T09:18:13.326Z,85.17
2016-03-08T09:19:13.298Z,84.41
2016-03-08T09:20:13.269Z,84.98
2016-03-08T09:21:13.241Z,84.22
2016-03-08T09:22:13.228Z,84.22
2016-03-08T09:23:13.183Z,84.59
2016-03-08T09:24:13.155Z,83.94
2016-03-08T09:25:13.143Z,83.84
2016-03-08T09:26:13.114Z,83.8
2016-03-08T09:27:13.085Z,83.8
2016-03-08T09:28:13.057Z,84.03
2016-03-08T09:29:13.029Z,83.94
2016-03-08T09:30:12.999Z,84.22
2016-03-08T09:31:12.971Z,84.27
2016-03-08T09:32:12.957Z,84.12
2016-03-08T09:33:12.929Z,84.03
2016-03-08T09:34:12.900Z,83.36
2016-03-08T09:35:12.873Z,84.03
2016-03-08T09:36:12.843Z,84.41
2016-03-08T09:37:12.814Z,83.94
2016-03-08T09:38:12.802Z,83.65
2016-03-08T09:39:12.773Z,83.94
2016-03-08T09:40:12.745Z,83.55
2016-03-08T09:41:12.717Z,83.65
2016-03-08T09:42:12.688Z,83.55
2016-03-08T09:43:12.659Z,83.55
2016-03-08T09:44:12.646Z,83.74
2016-03-08T09:45:12.618Z,83.65
2016-03-08T09:46:12.589Z,83.94
2016-03-08T09:47:12.560Z,83.61
2016-03-08T09:48:12.533Z,83.94
2016-03-08T09:49:12.503Z,84.22
2016-03-08T09:50:12.491Z,84.08
2016-03-08T09:51:12.463Z,84.22
2016-03-08T09:52:12.433Z,84.12
2016-03-08T09:53:12.405Z,83.27
2016-03-08T09:54:12.376Z,84.31
2016-03-08T09:55:12.348Z,84.22
2016-03-08T09:56:12.335Z,83.94
2016-03-08T09:57:12.306Z,83.55
2016-03-08T09:58:12.277Z,83.46
2016-03-08T09:59:12.405Z,84.22
2016-03-08T10:00:12.221Z,83.74
2016-03-08T10:01:12.535Z,83.84
2016-03-08T10:02:12.179Z,83.46
2016-03-08T10:03:12.150Z,83.08
2016-03-08T10:04:12.201Z,83.08
2016-03-08T10:05:12.468Z,82.79
2016-03-08T10:06:12.065Z,82.42
2016-03-08T10:07:12.038Z,82.13
2016-03-08T10:08:12.024Z,82.13
2016-03-08T10:09:12.012Z,81.85
2016-03-08T10:10:11.999Z,82.04
2016-03-08T10:11:12.001Z,81.75
2016-03-08T10:12:11.973Z,81.75
2016-03-08T10:13:11.913Z,81.47
2016-03-08T10:14:11.884Z,81.75
2016-03-08T10:15:12.090Z,81.94
2016-03-08T10:16:12.039Z,81.7
2016-03-08T10:17:11.830Z,81.32
2016-03-08T10:18:11.822Z,80.84
2016-03-08T10:19:11.706Z,80.94
2016-03-08T10:20:11.667Z,81.13
2016-03-08T10:21:11.648Z,81.32
2016-03-08T10:22:11.617Z,81.04
2016-03-08T10:23:11.584Z,80.94
2016-03-08T10:24:11.551Z,81.04
2016-03-08T10:25:11.520Z,81.32
2016-03-08T10:26:11.505Z,81.04
2016-03-08T10:27:11.475Z,80.94
2016-03-08T10:28:11.508Z,80.84
2016-03-08T10:29:11.448Z,80.75
2016-03-08T10:30:11.449Z,80.75
2016-03-08T10:31:11.388Z,81.13
2016-03-08T10:32:11.453Z,79.71
2016-03-08T10:33:11.595Z,80.08
2016-03-08T10:34:11.285Z,80.18
2016-03-08T10:35:11.288Z,80.18
2016-03-08T10:36:11.243Z,80.27
2016-03-08T10:37:11.230Z,80.37
2016-03-08T10:38:11.435Z,80.27
2016-03-08T10:39:11.156Z,80.08
2016-03-08T10:40:11.189Z,79.99
2016-03-08T10:41:11.114Z,79.71
2016-03-08T10:42:11.086Z,79.9
2016-03-08T10:43:11.197Z,79.99
2016-03-08T10:44:11.044Z,79.74
2016-03-08T10:45:11.188Z,79.08
2016-03-08T10:46:10.987Z,79.17
2016-03-08T10:47:10.975Z,78.99
2016-03-08T10:48:10.946Z,79.08
2016-03-08T10:49:10.917Z,79.08
2016-03-08T10:50:10.905Z,78.89
2016-03-08T10:51:10.923Z,78.51
2016-03-08T10:52:10.971Z,78.32
2016-03-08T10:53:10.819Z,78.13
2016-03-08T10:54:10.806Z,78.42
2016-03-08T10:55:10.777Z,78.42
2016-03-08T10:56:11.077Z,78.23
2016-03-08T10:57:11.095Z,78.23
2016-03-08T10:58:10.972Z,78.13
2016-03-08T10:59:10.726Z,78.23
2016-03-08T11:00:10.650Z,78.28
2016-03-08T11:01:10.652Z,78.66
2016-03-08T11:02:10.593Z,78.85
2016-03-08T11:03:10.564Z,78.38
2016-03-08T11:04:10.567Z,78.47
2016-03-08T11:05:10.539Z,78.56
2016-03-08T11:06:10.509Z,78.28
2016-03-08T11:07:10.466Z,77.94
2016-03-08T11:08:10.453Z,77.66
2016-03-08T11:09:10.596Z,77.47
2016-03-08T11:10:10.395Z,76.67
2016-03-08T11:11:10.367Z,76.67
2016-03-08T11:12:10.354Z,76.9
2016-03-08T11:13:10.326Z,76.9
2016-03-08T11:14:10.297Z,76.14
2016-03-08T11:15:10.268Z,76.04
2016-03-08T11:16:10.256Z,75.76
2016-03-08T11:17:10.227Z,75.85
2016-03-08T11:18:10.198Z,75.95
2016-03-08T11:19:10.201Z,75.85
2016-03-08T11:20:10.172Z,75.47
2016-03-08T11:21:10.222Z,75.47
2016-03-08T11:22:10.099Z,75.47
2016-03-08T11:23:10.087Z,75.19
2016-03-08T11:24:10.057Z,75.19
2016-03-08T11:25:10.170Z,74.9
2016-03-08T11:26:10.126Z,74.24
2016-03-08T11:27:09.987Z,73.96
2016-03-08T11:28:09.960Z,73.23
2016-03-08T11:29:09.931Z,73.1
2016-03-08T11:30:09.918Z,73.04
2016-03-08T11:31:09.890Z,73
2016-03-08T11:32:09.876Z,73
2016-03-08T11:33:09.848Z,73
2016-03-08T11:34:09.882Z,73.19
2016-03-08T11:35:09.806Z,72.72
2016-03-08T11:36:09.809Z,72.91
2016-03-08T11:37:09.936Z,73.1
2016-03-08T11:38:09.721Z,72.44
2016-03-08T11:39:09.833Z,72.75
2016-03-08T11:40:09.679Z,72.66
2016-03-08T11:41:09.651Z,72.47
2016-03-08T11:42:09.622Z,72.38
2016-03-08T11:43:09.608Z,71.52
2016-03-08T11:44:09.628Z,72
2016-03-08T11:45:09.725Z,71.81
2016-03-08T11:46:09.649Z,71.81
2016-03-08T11:47:09.652Z,71.33
2016-03-08T11:48:09.702Z,71.14
2016-03-08T11:49:09.469Z,70.89
2016-03-08T11:50:09.456Z,70.57
2016-03-08T11:51:09.427Z,70.79
2016-03-08T11:52:09.571Z,70.76
2016-03-08T11:53:09.620Z,70.7
2016-03-08T11:54:09.654Z,70.61
2016-03-08T11:55:09.485Z,70.95
2016-03-08T11:56:09.613Z,70.79
2016-03-08T11:57:09.287Z,70.7
2016-03-08T11:58:09.524Z,70.42
2016-03-08T11:59:09.277Z,70.04
2016-03-08T12:00:09.217Z,69.75
2016-03-08T12:01:09.190Z,69.75
2016-03-08T12:02:09.176Z,69.75
2016-03-08T12:03:09.366Z,69.56
2016-03-08T12:04:09.135Z,68.8
2016-03-08T12:05:09.278Z,69.27
2016-03-08T12:06:09.079Z,68.8
2016-03-08T12:07:09.066Z,68.9
2016-03-08T12:08:09.100Z,68.33
2016-03-08T12:09:09.103Z,68.23
2016-03-08T12:10:09.027Z,67.85
2016-03-08T12:11:09.249Z,67.38
2016-03-08T12:12:09.189Z,67.28
2016-03-08T12:13:08.941Z,67.09
2016-03-08T12:14:08.929Z,66.9
2016-03-08T12:15:08.947Z,66.9
2016-03-08T12:16:09.013Z,67.28
2016-03-08T12:17:08.843Z,66.52
2016-03-08T12:18:08.815Z,66.52
2016-03-08T12:19:08.818Z,66.42
2016-03-08T12:20:08.867Z,66.52
2016-03-08T12:21:08.744Z,66.61
2016-03-08T12:22:08.857Z,67.28
2016-03-08T12:23:08.906Z,66.9
2016-03-08T12:24:08.909Z,67.09
2016-03-08T12:25:08.724Z,66.71
2016-03-08T12:26:08.633Z,66.9
2016-03-08T12:27:08.776Z,66.61
2016-03-08T12:28:08.606Z,66.42
2016-03-08T12:29:08.860Z,66.71
2016-03-08T12:30:08.737Z,66.33
2016-03-08T12:31:08.694Z,66.71
2016-03-08T12:32:08.618Z,66.52
2016-03-08T12:33:08.636Z,66.52
2016-03-08T12:34:08.452Z,66.71
2016-03-08T12:35:08.563Z,66.52
2016-03-08T12:36:08.457Z,66.9
2016-03-08T12:37:08.522Z,67
2016-03-08T12:38:08.540Z,67.19
2016-03-08T12:39:08.637Z,67.09
2016-03-08T12:40:08.639Z,66.8
2016-03-08T12:41:08.470Z,66.71
2016-03-08T12:42:08.410Z,66.61
2016-03-08T12:43:08.319Z,66.71
2016-03-08T12:44:08.338Z,66.52
2016-03-08T12:45:08.543Z,66.71
2016-03-08T12:46:08.438Z,66.52
2016-03-08T12:47:08.330Z,66.33
2016-03-08T12:48:08.223Z,66.42
2016-03-08T12:49:08.196Z,66.52
2016-03-08T12:50:08.385Z,66.42
2016-03-08T12:51:08.168Z,66.42
2016-03-08T12:52:08.296Z,66.42
2016-03-08T12:53:08.174Z,66.42
2016-03-08T12:54:08.193Z,66.33
2016-03-08T12:55:07.961Z,66.42
2016-03-08T12:56:08.245Z,66.24